EGHI/SOU METAR and TAF weather

Enter ICAO airport designator
Station Type Date Time Source
EGHI METAR 2019/08/18 21:20 UTC NOAA

EGHI 182120Z 23007KT 190V260 CAVOK 16/11 Q1010


Station Type Date Time Source
EGHI Decoded METAR 2019/08/18 21:20 UTC NOAA

Station name not available
Aug 18, 2019 - 05:20 PM EDT / 2019.08.18 2120 UTC
Wind: from the SW (230 degrees) at 8 MPH (7 KT) (direction variable):0
Visibility: greater than 7 mile(s):0
Temperature: 60 F (16 C)
Dew Point: 51 F (11 C)
Relative Humidity: 72%
Pressure (altimeter): 29.83 in. Hg (1010 hPa)
ob: EGHI 182120Z 23007KT 190V260 CAVOK 16/11 Q1010
cycle: 21

Station Type Date Time Source
EGHI TAF 2016/03/02 12:00 UTC NOAA

TAF EGHI 021104Z 0212/0221 28015G25KT 9999 SCT020
TEMPO 0212/0221 29020G35KT PROB30
TEMPO 0212/0213 4000 SHRA BKN012CB
TEMPO 0218/0221 BKN014

Example: see airport list